KPTK

Oakland County International Airport

Pontiac, Michigan, USA
METAR KPTK 151553Z 07007KT 10SM OVC220 03/M01 A3016 RMK AO2 SLP224 T00281006
Observed Flight Rules
Dec-15 @ 15:53 UTC (11 minutes ago) Visual Flight Rules
Wind Visibility Clouds
70° at 7 knots 10 miles
  • Overcast at 22,000' AGL
Temperatures Readings
Current 3°C / 37°F
Dewpoint -1°C / 30°F
Humidity 75%
Altimeter 30.16" Hg
Pressure 1022.4 hPa
Elevation 299
METAR KPTK 151553Z 07007KT 10SM OVC220 03/M01 A3016 RMK AO2 SLP224 T00281006
Observed Flight Rules
Dec-15 @ 15:53 UTC
(11 minutes ago)
VFR
Wind Visibility
70° at 7 knots 10 miles
Clouds
  • Overcast at 22,000' AGL
Temperature Dewpoint
3°C / 37°F -1°C / 30°F
Humidity Altimeter Pressure
75% 30.16" Hg 1022.4 hPa